Time;durP1;ratioP1;P1;durP2;ratioP2;P2;SDS_P1;SDS_P2;PMS_P1;PMS_P2;Temp;Humidity;BMP_temperature;BMP_pressure;BME280_temperature;BME280_humidity;BME280_pressure;Samples;Min_cycle;Max_cycle;Signal;HPM_P1;HPM_P2
2023/05/26 00:00:50;;;;;;;10.98;2.67;;;;;;;-142.75;100.00;78560.91;5027886;28;20026;-64
2023/05/26 00:03:17;;;;;;;29.75;4.78;;;;;;;-142.75;100.00;78578.63;5028673;28;20053;-63
2023/05/26 00:05:43;;;;;;;13.07;3.65;;;;;;;-142.75;100.00;78574.69;5027960;28;20022;-64
2023/05/26 00:08:09;;;;;;;20.33;3.53;;;;;;;-142.75;100.00;78578.63;5028088;28;20055;-64
2023/05/26 00:10:35;;;;;;;25.07;3.93;;;;;;;-142.75;100.00;78582.59;5027340;28;20056;-64
2023/05/26 00:13:00;;;;;;;19.45;3.47;;;;;;;-142.75;100.00;78572.72;5028095;28;20614;-65
2023/05/26 00:15:26;;;;;;;19.40;3.23;;;;;;;-142.75;100.00;78574.69;5027837;28;20025;-64
2023/05/26 00:17:51;;;;;;;17.70;2.83;;;;;;;-142.75;100.00;78570.75;5027725;28;20017;-65
2023/05/26 00:20:16;;;;;;;21.38;3.15;;;;;;;-142.75;100.00;78586.53;5027552;28;21479;-64
2023/05/26 00:22:42;;;;;;;19.77;2.95;;;;;;;-142.75;100.00;78588.50;5027617;28;20032;-64
2023/05/26 00:25:08;;;;;;;24.73;4.50;;;;;;;-142.75;100.00;78600.31;5027052;28;20701;-65
2023/05/26 00:27:33;;;;;;;13.48;2.53;;;;;;;-142.75;100.00;78584.56;5026456;28;20029;-65
2023/05/26 00:29:58;;;;;;;17.27;3.42;;;;;;;-142.75;100.00;78584.56;5027118;28;20036;-64
2023/05/26 00:32:25;;;;;;;16.33;3.22;;;;;;;-142.75;100.00;78584.56;5027430;28;20096;-64
2023/05/26 00:34:50;;;;;;;17.37;2.87;;;;;;;-142.75;100.00;78594.41;5027494;28;20049;-62
2023/05/26 00:37:15;;;;;;;15.77;3.87;;;;;;;-142.75;100.00;78586.53;5027408;28;20533;-64
2023/05/26 00:39:40;;;;;;;25.27;4.53;;;;;;;-142.75;100.00;78578.63;5026384;28;20048;-64
2023/05/26 00:42:06;;;;;;;22.42;3.70;;;;;;;-142.75;100.00;78574.69;5025974;28;20113;-64
2023/05/26 00:44:31;;;;;;;13.27;3.03;;;;;;;-142.75;100.00;78578.63;5027388;28;20021;-64
2023/05/26 00:46:57;;;;;;;15.20;3.03;;;;;;;-142.75;100.00;78570.75;5027399;28;20031;-65
2023/05/26 00:49:22;;;;;;;20.83;3.53;;;;;;;-142.75;100.00;78574.69;5027049;28;20032;-64
2023/05/26 00:51:47;;;;;;;20.03;3.60;;;;;;;-142.75;100.00;78582.59;5025925;28;20052;-65
2023/05/26 00:54:13;;;;;;;15.80;3.13;;;;;;;-142.75;100.00;78586.53;5027203;28;20025;-65
2023/05/26 00:56:41;;;;;;;20.08;3.28;;;;;;;-142.75;100.00;78592.44;5027184;28;20021;-65
2023/05/26 00:59:10;;;;;;;25.80;3.35;;;;;;;-142.75;100.00;78614.09;5026672;28;20021;-63
2023/05/26 01:01:35;;;;;;;15.27;3.40;;;;;;;-142.75;100.00;78612.13;5026986;28;20031;-64
2023/05/26 01:04:00;;;;;;;20.63;4.13;;;;;;;-142.75;100.00;78598.34;5026937;28;20410;-64
2023/05/26 01:06:26;;;;;;;22.23;3.63;;;;;;;-142.75;100.00;78600.31;5026942;28;20021;-64
2023/05/26 01:08:52;;;;;;;18.13;3.55;;;;;;;-142.75;100.00;78610.16;5026062;28;20032;-64
2023/05/26 01:11:32;;;;;;;19.33;3.80;;;;;;;-142.75;100.00;78606.22;5027101;28;20030;-65
2023/05/26 01:14:10;;;;;;;15.17;3.30;;;;;;;-142.75;100.00;78621.97;5008381;28;20017;-64
2023/05/26 01:16:39;;;;;;;15.33;3.27;;;;;;;-142.75;100.00;78604.25;5026758;28;20645;-65
2023/05/26 01:19:26;;;;;;;16.77;3.30;;;;;;;-142.75;100.00;78614.09;5026338;28;20036;-63
2023/05/26 01:21:54;;;;;;;;;;;;;;;-142.75;100.00;78610.16;5026275;28;20025;-64
2023/05/26 01:24:39;;;;;;;11.73;2.70;;;;;;;-142.75;100.00;78606.22;5026694;28;19913;-64
2023/05/26 01:27:41;;;;;;;28.10;3.45;;;;;;;-142.75;100.00;78623.94;5025985;28;20037;-65
2023/05/26 01:30:07;;;;;;;23.37;4.00;;;;;;;-142.75;100.00;78621.97;5008044;28;20029;-65
2023/05/26 01:32:33;;;;;;;20.07;3.63;;;;;;;-142.75;100.00;78637.72;5026388;28;20025;-64
2023/05/26 01:34:58;;;;;;;18.53;3.53;;;;;;;-142.75;100.00;78631.81;5026331;28;20032;-64
2023/05/26 01:37:23;;;;;;;22.75;3.75;;;;;;;-142.75;100.00;78627.88;5026691;28;20021;-64
2023/05/26 01:39:49;;;;;;;17.17;2.83;;;;;;;-142.75;100.00;78639.69;5026279;28;20500;-64
2023/05/26 01:42:23;;;;;;;14.13;3.10;;;;;;;-142.75;100.00;78651.50;5026681;28;20589;-65
2023/05/26 01:44:58;;;;;;;15.47;2.90;;;;;;;-142.75;100.00;78653.47;5026506;28;20404;-65
2023/05/26 01:47:26;;;;;;;18.33;3.47;;;;;;;-142.75;100.00;78649.53;5026800;28;20033;-64
2023/05/26 01:49:52;;;;;;;19.37;3.90;;;;;;;-142.75;100.00;78653.47;5026072;28;20040;-63
2023/05/26 01:52:18;;;;;;;19.47;3.93;;;;;;;-142.75;100.00;78663.31;5026722;28;20395;-64
2023/05/26 01:54:59;;;;;;;18.53;3.70;;;;;;;-142.75;100.00;78665.28;5025829;28;20500;-65
2023/05/26 01:57:26;;;;;;;19.57;3.13;;;;;;;-142.75;100.00;78681.06;5025147;28;20489;-64
2023/05/26 01:59:52;;;;;;;24.20;4.10;;;;;;;-142.75;100.00;78686.97;5025372;28;20473;-64
2023/05/26 02:02:17;;;;;;;16.23;3.40;;;;;;;-142.75;100.00;78696.81;5026644;28;20025;-64
2023/05/26 02:04:43;;;;;;;16.17;3.40;;;;;;;-142.75;100.00;78694.84;5026191;28;20033;-64
2023/05/26 02:07:08;;;;;;;21.97;3.17;;;;;;;-142.75;100.00;78698.78;5026124;28;20025;-65
2023/05/26 02:09:33;;;;;;;18.23;3.13;;;;;;;-142.75;100.00;78692.88;5008118;28;20032;-63
2023/05/26 02:11:59;;;;;;;13.73;2.90;;;;;;;-142.75;100.00;78698.78;5026083;28;20026;-65
2023/05/26 02:14:24;;;;;;;22.37;4.03;;;;;;;-142.75;100.00;78696.81;5026263;28;20022;-64
2023/05/26 02:16:50;;;;;;;21.77;3.90;;;;;;;-142.75;100.00;78698.78;5026140;28;20028;-64
2023/05/26 02:19:15;;;;;;;22.17;3.27;;;;;;;-142.75;100.00;78696.81;5027302;28;20017;-64
2023/05/26 02:21:41;;;;;;;19.50;3.63;;;;;;;-142.75;100.00;78706.66;5028572;28;20043;-64
2023/05/26 02:24:07;;;;;;;21.57;3.97;;;;;;;-142.75;100.00;78706.66;5029027;28;20502;-64
2023/05/26 02:26:32;;;;;;;19.57;4.37;;;;;;;-142.75;100.00;78716.50;5029928;28;20109;-64
2023/05/26 02:28:58;;;;;;;18.97;3.70;;;;;;;-142.75;100.00;78720.44;5029871;28;20021;-64
2023/05/26 02:31:23;;;;;;;18.50;2.90;;;;;;;-142.75;100.00;78712.56;5029702;28;20506;-65
2023/05/26 02:33:50;;;;;;;16.20;4.17;;;;;;;-142.75;100.00;78716.50;5030069;28;20140;-65
2023/05/26 02:36:15;;;;;;;11.93;2.63;;;;;;;-142.75;100.00;78716.50;5030024;28;20037;-64
2023/05/26 02:38:42;;;;;;;18.73;3.53;;;;;;;-142.75;100.00;78706.66;5029698;28;20410;-65
2023/05/26 02:41:08;;;;;;;25.77;4.30;;;;;;;-142.75;100.00;78710.59;5029635;28;20030;-65
2023/05/26 02:43:34;;;;;;;19.93;3.30;;;;;;;-142.75;100.00;78716.50;5029763;28;20359;-65
2023/05/26 02:45:59;;;;;;;25.03;3.93;;;;;;;-142.75;100.00;78718.47;5029902;28;20059;-65
2023/05/26 02:48:25;;;;;;;22.40;4.10;;;;;;;-142.75;100.00;78710.59;5029917;28;20533;-64
2023/05/26 02:50:50;;;;;;;19.10;3.33;;;;;;;-142.75;100.00;78722.41;5029349;28;20490;-64
2023/05/26 02:53:16;;;;;;;14.10;2.83;;;;;;;-142.75;100.00;78722.41;5029918;28;20033;-62
2023/05/26 02:55:42;;;;;;;18.13;3.10;;;;;;;-142.75;100.00;78726.34;5030074;28;20108;-65
2023/05/26 02:58:07;;;;;;;18.63;4.03;;;;;;;-142.75;100.00;78738.16;5030106;28;20025;-64
2023/05/26 03:00:33;;;;;;;24.57;3.33;;;;;;;-142.75;100.00;78742.09;5011906;28;20030;-64
2023/05/26 03:02:58;;;;;;;18.53;3.97;;;;;;;-142.75;100.00;78742.09;5030003;28;20164;-65
2023/05/26 03:05:23;;;;;;;22.47;3.30;;;;;;;-142.75;100.00;78746.03;5029830;28;20127;-65
2023/05/26 03:07:48;;;;;;;18.93;3.63;;;;;;;-142.75;100.00;78732.25;5029727;28;20017;-65
2023/05/26 03:10:14;;;;;;;21.20;3.73;;;;;;;-142.75;100.00;78744.09;5029262;28;20525;-65
2023/05/26 03:12:40;;;;;;;19.17;3.20;;;;;;;-142.75;100.00;78753.94;5029601;28;20093;-64
2023/05/26 03:15:06;;;;;;;16.07;4.07;;;;;;;-142.75;100.00;78746.03;5029760;28;20104;-64
2023/05/26 03:17:31;;;;;;;13.50;2.63;;;;;;;-142.75;100.00;78742.09;5029484;28;20060;-65
2023/05/26 03:19:57;;;;;;;23.73;4.43;;;;;;;-142.75;100.00;78744.09;5028549;28;20056;-65
2023/05/26 03:22:22;;;;;;;19.60;3.17;;;;;;;-142.75;100.00;78755.91;5029238;28;20047;-64
2023/05/26 03:24:48;;;;;;;14.33;3.57;;;;;;;-142.75;100.00;78755.91;5029112;28;20033;-64
2023/05/26 03:27:13;;;;;;;21.67;3.67;;;;;;;-142.75;100.00;78748.03;5029215;28;20025;-64
2023/05/26 03:29:38;;;;;;;23.37;4.37;;;;;;;-142.75;100.00;78732.25;5028889;28;20116;-64
2023/05/26 03:32:05;;;;;;;22.77;2.97;;;;;;;-142.75;100.00;78744.09;5028009;28;20024;-65
2023/05/26 03:34:30;;;;;;;23.23;3.13;;;;;;;-142.75;100.00;78732.25;5029150;28;20041;-65
2023/05/26 03:36:55;;;;;;;12.57;2.93;;;;;;;-142.75;100.00;78728.31;5029270;28;20125;-65
2023/05/26 03:39:24;;;;;;;23.93;3.30;;;;;;;-142.75;100.00;78750.00;5028984;28;20383;-64
2023/05/26 03:41:49;;;;;;;19.07;3.10;;;;;;;-142.75;100.00;78730.28;5029388;28;20120;-64
2023/05/26 03:44:18;;;;;;;18.47;3.20;;;;;;;-142.75;100.00;78746.03;5029144;28;20086;-65
2023/05/26 03:46:45;;;;;;;20.47;2.83;;;;;;;-142.75;100.00;78750.00;5027806;28;20025;-65
2023/05/26 03:49:11;;;;;;;16.27;3.50;;;;;;;-142.75;100.00;78736.19;5028512;28;20057;-64
2023/05/26 03:51:36;;;;;;;17.87;3.10;;;;;;;-142.75;100.00;78728.31;5026873;28;20056;-66
2023/05/26 03:54:01;;;;;;;24.63;3.27;;;;;;;-142.75;100.00;78720.44;5029351;28;20021;-65
2023/05/26 03:56:27;;;;;;;19.83;4.17;;;;;;;-142.75;100.00;78722.41;5029790;28;20124;-65
2023/05/26 03:58:52;;;;;;;16.77;3.43;;;;;;;-142.75;100.00;78734.22;5031210;28;20124;-64
2023/05/26 04:01:19;;;;;;;22.03;3.57;;;;;;;-142.75;100.00;78744.09;5030208;28;20056;-65
2023/05/26 04:03:45;;;;;;;19.03;2.90;;;;;;;-142.75;100.00;78736.19;5029910;28;20442;-65
2023/05/26 04:06:10;;;;;;;17.83;3.30;;;;;;;-142.75;100.00;78722.41;5028100;28;20104;-65
2023/05/26 04:08:35;;;;;;;18.33;3.53;;;;;;;-142.75;100.00;78726.34;5029100;28;20083;-65
2023/05/26 04:11:01;;;;;;;21.53;3.07;;;;;;;-142.75;100.00;78736.19;5028000;28;20068;-65
2023/05/26 04:13:26;;;;;;;19.80;3.83;;;;;;;-142.75;100.00;78740.13;5027292;28;20053;-65
2023/05/26 04:15:52;;;;;;;23.00;3.47;;;;;;;-142.75;100.00;78736.19;5028125;28;20038;-63
2023/05/26 04:18:17;;;;;;;19.13;2.97;;;;;;;-142.75;100.00;78734.22;5027833;28;20033;-64
2023/05/26 04:20:43;;;;;;;24.03;3.93;;;;;;;-142.75;100.00;78724.38;5027150;28;20163;-65
2023/05/26 04:23:08;;;;;;;25.07;4.03;;;;;;;-142.75;100.00;78724.38;5027769;28;20108;-65
2023/05/26 04:25:34;;;;;;;21.60;3.57;;;;;;;-142.75;100.00;78716.50;5009515;28;20383;-65
2023/05/26 04:28:02;;;;;;;14.30;3.30;;;;;;;-142.75;100.00;78720.44;5026022;28;20034;-65
2023/05/26 04:30:27;;;;;;;17.63;3.97;;;;;;;-142.75;100.00;78706.66;5006931;28;20035;-65
2023/05/26 04:32:52;;;;;;;16.87;3.53;;;;;;;-142.75;100.00;78694.84;5008023;28;20486;-64
2023/05/26 04:35:19;;;;;;;22.80;3.83;;;;;;;-142.75;100.00;78712.56;5025475;28;20429;-65
2023/05/26 04:37:45;;;;;;;17.30;3.00;;;;;;;-142.75;100.00;78679.09;5026078;28;20025;-64
2023/05/26 04:40:10;;;;;;;20.70;4.43;;;;;;;-142.75;100.00;78688.94;5026356;28;20032;-64
2023/05/26 04:42:36;;;;;;;21.73;3.63;;;;;;;-142.75;100.00;78690.91;5026084;28;20029;-65
2023/05/26 04:45:05;;;;;;;28.77;3.60;;;;;;;-142.75;100.00;78675.16;5025204;28;20379;-65
2023/05/26 04:47:34;;;;;;;29.47;4.67;;;;;;;-142.75;100.00;78653.47;5027075;28;20061;-64
2023/05/26 04:50:01;;;;;;;20.70;3.47;;;;;;;-142.75;100.00;78669.25;5026589;28;20499;-65
2023/05/26 04:52:27;;;;;;;12.93;3.73;;;;;;;-142.75;100.00;78661.34;5026530;28;20017;-64
2023/05/26 04:54:53;;;;;;;15.87;3.37;;;;;;;-142.75;100.00;78653.47;5009310;28;20037;-64
2023/05/26 04:57:18;;;;;;;23.97;3.10;;;;;;;-142.75;100.00;78645.59;5027049;28;20029;-64
2023/05/26 04:59:45;;;;;;;23.03;3.47;;;;;;;-142.75;100.00;78641.66;5008741;28;20470;-65
2023/05/26 05:02:11;;;;;;;21.13;3.87;;;;;;;-142.75;100.00;78625.91;5028336;28;20063;-65
2023/05/26 05:04:36;;;;;;;20.00;3.97;;;;;;;-142.75;100.00;78625.91;5028297;28;20036;-65
2023/05/26 05:07:02;;;;;;;20.40;3.90;;;;;;;-142.75;100.00;78612.13;5028264;28;20486;-65
2023/05/26 05:09:27;;;;;;;24.17;4.57;;;;;;;-142.75;100.00;78614.09;5028585;28;20029;-65
2023/05/26 05:11:53;;;;;;;18.75;3.78;;;;;;;-142.75;100.00;78598.34;5028767;28;20029;-64
2023/05/26 05:14:18;;;;;;;19.90;3.47;;;;;;;-142.75;100.00;78596.38;5029183;28;20600;-65
2023/05/26 05:16:44;;;;;;;18.88;3.63;;;;;;;-142.75;100.00;78578.63;5009282;28;20033;-64
2023/05/26 05:19:09;;;;;;;20.17;2.97;;;;;;;-142.75;100.00;78578.63;5027739;28;20112;-65
2023/05/26 05:21:34;;;;;;;19.00;3.97;;;;;;;-142.75;100.00;78574.69;5027667;28;20037;-65
2023/05/26 05:23:59;;;;;;;23.50;3.10;;;;;;;-142.75;100.00;78582.59;5028045;28;20461;-65
2023/05/26 05:26:25;;;;;;;18.98;3.08;;;;;;;-142.75;100.00;78584.56;5011559;28;20032;-65
2023/05/26 05:28:50;;;;;;;23.60;3.20;;;;;;;-142.75;100.00;78578.63;5027777;28;20037;-65
2023/05/26 05:31:16;;;;;;;16.23;3.55;;;;;;;-142.75;100.00;78555.00;5027494;28;20075;-65
2023/05/26 05:33:43;;;;;;;22.80;3.33;;;;;;;-142.75;100.00;78566.81;5028602;28;20116;-64
2023/05/26 05:36:09;;;;;;;19.20;3.83;;;;;;;-142.75;100.00;78541.22;5027193;28;20029;-64
2023/05/26 05:38:34;;;;;;;14.85;3.33;;;;;;;-142.75;100.00;78521.53;5025982;28;20436;-63
2023/05/26 05:40:59;;;;;;;20.55;3.53;;;;;;;-142.75;100.00;78517.59;5025826;28;20041;-63
2023/05/26 05:43:25;;;;;;;18.10;3.42;;;;;;;-142.75;100.00;78525.47;5025085;28;20029;-64
2023/05/26 05:45:50;;;;;;;18.88;3.20;;;;;;;-142.75;100.00;78531.38;5025222;28;20112;-65
2023/05/26 05:48:16;;;;;;;20.75;3.78;;;;;;;-142.75;100.00;78517.59;5026295;28;20037;-64
2023/05/26 05:50:41;;;;;;;17.83;4.03;;;;;;;-142.75;100.00;78499.88;5023884;28;20108;-66
2023/05/26 05:53:06;;;;;;;21.05;3.40;;;;;;;-142.75;100.00;78511.69;5025444;28;20100;-65
2023/05/26 05:55:32;;;;;;;21.05;4.38;;;;;;;-142.75;100.00;78507.75;5025675;28;20037;-65
2023/05/26 05:57:57;;;;;;;25.60;3.38;;;;;;;-142.75;100.00;78488.03;5026321;28;20036;-66
2023/05/26 06:00:22;;;;;;;20.58;3.55;;;;;;;-142.75;100.00;78547.13;5025874;28;20144;-63
2023/05/26 06:02:48;;;;;;;20.08;3.50;;;;;;;-142.75;100.00;78521.53;5027213;28;20041;-65
2023/05/26 06:05:13;;;;;;;26.23;3.90;;;;;;;-142.75;100.00;78515.63;5028352;28;20039;-65
2023/05/26 06:07:38;;;;;;;18.17;3.35;;;;;;;-142.75;100.00;78488.03;5026776;28;20471;-66
2023/05/26 06:10:04;;;;;;;16.17;3.72;;;;;;;-142.75;100.00;78511.69;5026653;28;20029;-65
2023/05/26 06:12:29;;;;;;;20.63;3.85;;;;;;;-142.75;100.00;78491.97;5025178;28;20044;-65
2023/05/26 06:14:55;;;;;;;14.93;3.35;;;;;;;-142.75;100.00;78493.97;5026648;28;20032;-66
2023/05/26 06:17:20;;;;;;;28.00;3.80;;;;;;;-142.75;100.00;78486.06;5026200;28;20025;-64
2023/05/26 06:19:45;;;;;;;16.45;3.95;;;;;;;-142.75;100.00;78458.50;5025604;28;20048;-63
2023/05/26 06:22:11;;;;;;;17.20;3.15;;;;;;;-142.75;100.00;78446.69;5026727;28;20029;-65
2023/05/26 06:24:36;;;;;;;18.77;3.15;;;;;;;-142.75;100.00;78462.44;5024318;28;20610;-65
2023/05/26 06:27:01;;;;;;;22.77;3.60;;;;;;;-142.75;100.00;78432.91;5025415;28;20643;-66
2023/05/26 06:29:27;;;;;;;15.02;2.80;;;;;;;-142.75;100.00;78468.34;5024108;28;20032;-66
2023/05/26 06:31:52;;;;;;;22.73;3.25;;;;;;;-142.75;100.00;78470.31;5025326;28;20014;-65
2023/05/26 06:34:17;;;;;;;19.83;3.58;;;;;;;-142.75;100.00;78456.53;5008730;28;20048;-66
2023/05/26 06:36:43;;;;;;;17.90;3.28;;;;;;;-142.75;100.00;78444.72;5026386;28;20033;-65
2023/05/26 06:39:08;;;;;;;15.20;3.60;;;;;;;-142.75;100.00;78436.84;5026705;28;20053;-64
2023/05/26 06:41:33;;;;;;;26.38;4.30;;;;;;;-142.75;100.00;78468.34;5025999;28;20026;-66
2023/05/26 06:43:59;;;;;;;16.88;3.15;;;;;;;-142.75;100.00;78428.97;5026025;28;20047;-66
2023/05/26 06:46:24;;;;;;;16.55;3.15;;;;;;;-142.75;100.00;78466.38;5026084;28;20071;-66
2023/05/26 06:48:50;;;;;;;17.30;3.40;;;;;;;-142.75;100.00;78456.53;5025994;28;20032;-66
2023/05/26 06:51:15;;;;;;;19.95;3.58;;;;;;;-142.75;100.00;78460.47;5025704;28;20021;-66
2023/05/26 06:53:40;;;;;;;18.60;3.38;;;;;;;-142.75;100.00;78421.09;5026042;28;20036;-65
2023/05/26 06:56:06;;;;;;;23.65;3.55;;;;;;;-142.75;100.00;78369.88;5026137;28;20025;-66
2023/05/26 06:58:31;;;;;;;20.38;4.38;;;;;;;-142.75;100.00;78383.66;5026024;28;20040;-66
2023/05/26 07:01:02;;;;;;;12.93;3.00;;;;;;;-142.75;100.00;78387.59;5025117;28;20107;-66
2023/05/26 07:03:28;;;;;;;14.50;3.28;;;;;;;-142.75;100.00;78401.38;5026003;28;20151;-66
2023/05/26 07:05:55;;;;;;;17.90;2.80;;;;;;;-142.75;100.00;78348.22;5026022;28;20076;-65
2023/05/26 07:08:21;;;;;;;17.65;3.05;;;;;;;-142.75;100.00;78365.94;5028980;28;20029;-65
2023/05/26 07:10:46;;;;;;;13.45;2.75;;;;;;;-142.75;100.00;78306.88;5028094;28;20059;-65
2023/05/26 07:13:15;;;;;;;18.33;3.20;;;;;;;-142.75;100.00;78271.41;5026999;28;20029;-66
2023/05/26 07:15:41;;;;;;;18.65;3.17;;;;;;;-142.75;100.00;78208.41;5028989;28;20049;-65
2023/05/26 07:18:07;;;;;;;8.73;2.35;;;;;;;-142.75;100.00;78184.78;5029088;28;20061;-65
2023/05/26 07:20:32;;;;;;;21.35;3.72;;;;;;;-142.75;100.00;78204.47;5028850;28;20030;-67
2023/05/26 07:22:58;;;;;;;27.35;3.72;;;;;;;-142.75;100.00;78200.53;5029214;28;20029;-66
2023/05/26 07:25:23;;;;;;;18.98;3.30;;;;;;;-142.75;100.00;78216.28;5026780;28;20021;-66
2023/05/26 07:27:48;;;;;;;15.93;3.00;;;;;;;-142.75;100.00;78208.41;5029345;28;20025;-66
2023/05/26 07:30:15;;;;;;;19.83;2.83;;;;;;;-142.75;100.00;78163.09;5028567;28;20025;-66
2023/05/26 07:32:40;;;;;;;20.15;2.67;;;;;;;-142.75;100.00;78125.69;5027412;28;20029;-65
2023/05/26 07:35:05;;;;;;;14.48;2.88;;;;;;;-142.75;100.00;78106.00;5029366;28;20483;-64
2023/05/26 07:37:31;;;;;;;20.65;3.22;;;;;;;-142.75;100.00;78041.00;5029767;28;20033;-64
2023/05/26 07:39:56;;;;;;;17.95;2.60;;;;;;;-142.75;100.00;78007.53;5029139;28;20526;-65
2023/05/26 07:42:22;;;;;;;11.95;2.35;;;;;;;-142.75;100.00;77983.91;5030133;28;20072;-65
2023/05/26 07:44:47;;;;;;;17.00;2.35;;;;;;;-142.75;98.94;78009.50;5029129;28;20025;-64
2023/05/26 07:47:13;;;;;;;14.65;3.00;;;;;;;-142.75;98.49;77983.91;5029474;28;20564;-65
2023/05/26 07:49:38;;;;;;;22.60;3.53;;;;;;;-142.75;95.22;78041.00;5028235;28;20052;-68
2023/05/26 07:52:04;;;;;;;17.30;3.65;;;;;;;-142.75;99.86;78007.53;5028382;28;20083;-68
2023/05/26 07:54:29;;;;;;;13.32;2.60;;;;;;;-142.75;94.37;78060.72;5028499;28;20076;-67
2023/05/26 07:56:54;;;;;;;12.15;2.78;;;;;;;-142.75;96.59;78062.69;5028152;28;20386;-67
2023/05/26 07:59:20;;;;;;;11.88;2.85;;;;;;;-142.75;100.00;78039.03;5027742;28;20770;-67
2023/05/26 08:01:45;;;;;;;15.65;2.80;;;;;;;-142.75;96.66;78031.16;5029944;28;20025;-67
2023/05/26 08:04:10;;;;;;;22.05;2.80;;;;;;;-142.75;96.30;78025.25;5030774;28;20406;-68
2023/05/26 08:06:35;;;;;;;19.00;3.20;;;;;;;-142.75;96.69;77978.00;5030142;28;20441;-68
2023/05/26 08:09:02;;;;;;;16.05;2.78;;;;;;;-142.75;92.34;78003.59;5030558;28;20033;-67
2023/05/26 08:11:27;;;;;;;21.52;3.85;;;;;;;-142.75;94.33;77964.22;5030771;28;20048;-67
2023/05/26 08:13:53;;;;;;;14.60;3.00;;;;;;;-142.75;95.01;77962.25;5029937;28;20033;-68
2023/05/26 08:16:18;;;;;;;12.27;2.85;;;;;;;-142.75;93.33;77928.78;5029092;28;20052;-67
2023/05/26 08:18:44;;;;;;;14.73;3.10;;;;;;;-142.75;96.06;77891.34;5026737;28;20029;-67
2023/05/26 08:21:09;;;;;;;11.27;2.47;;;;;;;-142.75;92.42;77861.81;5026747;28;20037;-67
2023/05/26 08:23:34;;;;;;;12.38;2.45;;;;;;;-142.75;91.41;77836.22;5027348;28;20025;-66
2023/05/26 08:26:00;;;;;;;15.75;3.10;;;;;;;-142.75;89.16;77816.53;5026823;28;20025;-66
2023/05/26 08:28:25;;;;;;;15.35;2.78;;;;;;;-142.75;88.05;77818.50;5027278;28;20486;-65
2023/05/26 08:30:50;;;;;;;17.30;3.05;;;;;;;-142.75;86.34;77802.75;5026596;28;20017;-66
2023/05/26 08:33:16;;;;;;;15.43;3.33;;;;;;;-142.75;85.84;77822.44;5027113;28;20585;-66
2023/05/26 08:35:41;;;;;;;16.00;2.75;;;;;;;-142.75;89.18;77783.06;5026812;28;20017;-66
2023/05/26 08:38:06;;;;;;;20.10;3.05;;;;;;;-142.75;87.55;77743.69;5026835;28;20378;-66
2023/05/26 08:40:33;;;;;;;11.70;2.50;;;;;;;-142.75;86.24;77739.75;5027004;28;20116;-66
2023/05/26 08:43:03;;;;;;;24.83;3.97;;;;;;;-142.75;80.18;77783.06;5026503;28;20239;-66
2023/05/26 08:45:29;;;;;;;13.93;2.92;;;;;;;-142.75;78.85;77828.34;5026857;28;20017;-66
2023/05/26 08:47:59;;;;;;;16.85;3.42;;;;;;;-142.75;80.04;77853.94;5009356;28;20024;-66
2023/05/26 08:50:26;;;;;;;20.05;3.78;;;;;;;-142.75;82.05;77830.31;5025895;28;20028;-65
2023/05/26 08:52:51;;;;;;;19.58;3.90;;;;;;;-142.75;81.05;77787.00;5027010;28;20052;-65
2023/05/26 08:55:16;;;;;;;13.80;2.67;;;;;;;-142.75;80.45;77785.03;5026733;28;20112;-66
2023/05/26 08:57:42;;;;;;;13.93;3.13;;;;;;;-142.75;80.08;77759.44;5026733;28;20032;-66
2023/05/26 09:00:08;;;;;;;15.30;2.35;;;;;;;-142.75;79.90;77790.94;5026129;28;20017;-67
2023/05/26 09:02:34;;;;;;;14.90;2.63;;;;;;;-142.75;79.84;77796.84;5008867;28;20032;-66
2023/05/26 09:04:59;;;;;;;12.80;2.00;;;;;;;-142.75;79.81;77767.31;5026401;28;20540;-66
2023/05/26 09:07:24;;;;;;;10.48;2.58;;;;;;;-142.75;80.62;77755.50;5025531;28;20013;-66
2023/05/26 09:09:50;;;;;;;14.85;2.67;;;;;;;-142.75;81.25;77712.16;5025105;28;20108;-66
2023/05/26 09:12:16;;;;;;;13.65;2.40;;;;;;;-142.75;77.29;77718.06;5025188;28;20096;-66
2023/05/26 09:14:42;;;;;;;12.98;2.83;;;;;;;-142.75;78.56;77716.09;5025220;28;20104;-66
2023/05/26 09:17:12;;;;;;;17.63;2.60;;;;;;;-142.75;76.52;77708.22;5025333;28;20221;-66
2023/05/26 09:19:37;;;;;;;14.57;2.55;;;;;;;-142.75;79.21;77660.97;5024967;28;20075;-66
2023/05/26 09:22:10;;;;;;;13.18;2.53;;;;;;;-142.75;76.83;77690.50;5024996;28;20025;-66
2023/05/26 09:24:48;;;;;;;14.50;2.67;;;;;;;-142.75;75.79;77633.41;5025171;28;20572;-66
2023/05/26 09:27:23;;;;;;;15.15;2.70;;;;;;;-142.75;72.92;77688.53;5024958;28;20588;-66
2023/05/26 09:29:52;;;;;;;12.05;2.20;;;;;;;-142.75;74.11;77680.66;5024742;28;20021;-66
2023/05/26 09:32:17;;;;;;;13.82;3.15;;;;;;;-142.75;77.80;77635.38;5025744;28;20025;-66
2023/05/26 09:34:43;;;;;;;11.73;2.65;;;;;;;-142.75;72.08;77605.84;5025863;28;20083;-66
2023/05/26 09:37:09;;;;;;;11.73;2.35;;;;;;;-142.75;72.30;77625.53;5025549;28;20108;-66
2023/05/26 09:39:35;;;;;;;11.30;2.38;;;;;;;-142.75;71.87;77666.88;5025799;28;20199;-66
2023/05/26 09:42:06;;;;;;;15.68;2.85;;;;;;;-142.75;73.74;77570.41;5025162;28;20052;-66
2023/05/26 09:44:31;;;;;;;13.18;2.95;;;;;;;-142.75;74.52;77609.78;5024457;28;20500;-66
2023/05/26 09:46:57;;;;;;;13.90;2.78;;;;;;;-142.75;73.93;77558.59;5025448;28;20122;-65
2023/05/26 09:49:22;;;;;;;12.07;2.63;;;;;;;-142.75;74.01;77534.97;5025552;28;20399;-66
2023/05/26 09:51:51;;;;;;;10.10;2.55;;;;;;;-142.75;72.82;77534.97;5025363;28;20048;-66
2023/05/26 09:54:16;;;;;;;10.40;2.75;;;;;;;-142.75;72.19;77564.50;5025475;28;20021;-66
2023/05/26 09:56:56;;;;;;;12.70;2.80;;;;;;;-142.75;74.37;77562.53;5025596;28;20399;-66
2023/05/26 09:59:21;;;;;;;13.20;2.45;;;;;;;-142.75;76.46;77505.44;5017719;28;20113;-66
2023/05/26 10:01:47;;;;;;;12.57;2.55;;;;;;;-142.75;74.88;77517.25;5021823;28;20179;-66
2023/05/26 10:04:14;;;;;;;12.93;2.17;;;;;;;-142.75;73.81;77534.97;5025319;28;20227;-66
2023/05/26 10:06:40;;;;;;;11.68;2.53;;;;;;;-142.75;73.97;77471.97;5025865;28;20040;-66
2023/05/26 10:09:07;;;;;;;11.05;2.63;;;;;;;-142.75;72.40;77452.25;5025418;28;20017;-66
2023/05/26 10:11:46;;;;;;;19.25;3.05;;;;;;;-142.75;72.48;77428.63;5025559;28;20048;-66
2023/05/26 10:14:12;;;;;;;12.20;2.53;;;;;;;-142.75;74.69;77399.09;5025693;28;20025;-66
2023/05/26 10:16:38;;;;;;;9.95;2.50;;;;;;;-142.75;71.85;77377.44;5025875;28;20036;-66
2023/05/26 10:19:05;;;;;;;7.85;2.25;;;;;;;-142.75;69.35;77369.56;5025780;28;20033;-66
2023/05/26 10:21:36;;;;;;;10.55;2.13;;;;;;;-142.75;70.26;77349.88;5024393;28;20029;-66
2023/05/26 10:24:32;;;;;;;12.70;2.75;;;;;;;-142.75;70.30;77343.97;5025598;28;20107;-65
2023/05/26 10:27:06;;;;;;;8.95;2.40;;;;;;;-142.75;71.76;77310.50;5025167;28;20021;-65
2023/05/26 10:29:39;;;;;;;11.52;2.53;;;;;;;-142.75;69.94;77292.78;5025550;28;20044;-65
2023/05/26 10:32:04;;;;;;;12.85;2.85;;;;;;;-142.75;69.56;77336.09;5025835;28;20022;-66
2023/05/26 10:34:45;;;;;;;14.60;2.90;;;;;;;-142.75;69.34;77334.13;5025983;28;20033;-66
2023/05/26 10:37:17;;;;;;;7.68;2.10;;;;;;;-142.75;69.78;77316.41;5008123;28;20022;-67
2023/05/26 10:39:43;;;;;;;10.52;2.63;;;;;;;-142.75;66.85;77324.28;5025054;28;20033;-66
2023/05/26 10:42:16;;;;;;;19.25;2.95;;;;;;;-142.75;63.20;77405.00;5029182;28;20021;-66
2023/05/26 10:44:45;;;;;;;14.30;2.25;;;;;;;-142.75;68.30;77340.03;5029547;28;20065;-66
2023/05/26 10:47:16;;;;;;;10.48;2.50;;;;;;;-142.75;68.37;77273.09;5029531;28;20021;-66
2023/05/26 10:49:50;;;;;;;15.30;3.38;;;;;;;-142.75;69.15;77277.03;5029023;28;20069;-65
2023/05/26 10:52:16;;;;;;;9.32;2.53;;;;;;;-142.75;68.80;77286.88;5029493;28;20729;-66
2023/05/26 10:54:47;;;;;;;14.38;2.58;;;;;;;-142.75;66.92;77300.66;5029272;28;20022;-66
2023/05/26 10:57:33;;;;;;;10.55;2.40;;;;;;;-142.75;70.24;77251.44;5029380;28;20037;-67
2023/05/26 11:00:25;;;;;;;14.33;3.37;;;;;;;-142.75;69.02;77263.25;5028797;28;20067;-65
2023/05/26 11:02:51;;;;;;;14.38;2.83;;;;;;;-142.75;61.93;77280.97;5028396;28;20287;-66